sensor_id;sensor_type;location;lat;lon;timestamp;pressure;altitude;pressure_sealevel;temperature
25514;BMP180;48128;54.242;10.280;2022-11-24T00:01:12;99945.00;;;3.80
25514;BMP180;48128;54.242;10.280;2022-11-24T00:03:42;99947.00;;;3.80
25514;BMP180;48128;54.242;10.280;2022-11-24T00:06:11;99948.00;;;3.80
25514;BMP180;48128;54.242;10.280;2022-11-24T00:08:40;99958.00;;;3.80
25514;BMP180;48128;54.242;10.280;2022-11-24T00:11:09;99942.00;;;3.80
25514;BMP180;48128;54.242;10.280;2022-11-24T00:13:36;99945.00;;;3.80
25514;BMP180;48128;54.242;10.280;2022-11-24T00:16:07;99954.00;;;3.80
25514;BMP180;48128;54.242;10.280;2022-11-24T00:18:35;99948.00;;;3.80
25514;BMP180;48128;54.242;10.280;2022-11-24T00:21:02;99952.00;;;3.80
25514;BMP180;48128;54.242;10.280;2022-11-24T00:23:28;99957.00;;;3.80
25514;BMP180;48128;54.242;10.280;2022-11-24T00:26:03;99953.00;;;3.80
25514;BMP180;48128;54.242;10.280;2022-11-24T00:28:31;99952.00;;;3.80
25514;BMP180;48128;54.242;10.280;2022-11-24T00:30:59;99944.00;;;3.80
25514;BMP180;48128;54.242;10.280;2022-11-24T00:33:26;99959.00;;;3.80
25514;BMP180;48128;54.242;10.280;2022-11-24T00:35:55;99966.00;;;3.80
25514;BMP180;48128;54.242;10.280;2022-11-24T00:38:22;99962.00;;;3.80
25514;BMP180;48128;54.242;10.280;2022-11-24T00:40:49;99963.00;;;3.80
25514;BMP180;48128;54.242;10.280;2022-11-24T00:43:16;99957.00;;;3.80
25514;BMP180;48128;54.242;10.280;2022-11-24T00:45:45;99964.00;;;3.90
25514;BMP180;48128;54.242;10.280;2022-11-24T00:48:12;99968.00;;;3.80
25514;BMP180;48128;54.242;10.280;2022-11-24T00:50:39;99954.00;;;3.80
25514;BMP180;48128;54.242;10.280;2022-11-24T00:53:06;99967.00;;;3.80
25514;BMP180;48128;54.242;10.280;2022-11-24T00:55:33;99966.00;;;3.80
25514;BMP180;48128;54.242;10.280;2022-11-24T00:58:00;99968.00;;;3.80
25514;BMP180;48128;54.242;10.280;2022-11-24T01:00:26;99967.00;;;3.90
25514;BMP180;48128;54.242;10.280;2022-11-24T01:02:53;99965.00;;;3.90
25514;BMP180;48128;54.242;10.280;2022-11-24T01:05:20;99976.00;;;3.90
25514;BMP180;48128;54.242;10.280;2022-11-24T01:07:47;99972.00;;;3.90
25514;BMP180;48128;54.242;10.280;2022-11-24T01:10:14;99978.00;;;3.90
25514;BMP180;48128;54.242;10.280;2022-11-24T01:12:40;99973.00;;;3.90
25514;BMP180;48128;54.242;10.280;2022-11-24T01:15:07;99980.00;;;3.90
25514;BMP180;48128;54.242;10.280;2022-11-24T01:17:34;99973.00;;;3.90
25514;BMP180;48128;54.242;10.280;2022-11-24T01:20:01;99987.00;;;3.90
25514;BMP180;48128;54.242;10.280;2022-11-24T01:22:28;99974.00;;;3.90
25514;BMP180;48128;54.242;10.280;2022-11-24T01:24:55;99992.00;;;3.90
25514;BMP180;48128;54.242;10.280;2022-11-24T01:27:22;99981.00;;;3.90
25514;BMP180;48128;54.242;10.280;2022-11-24T01:29:48;99980.00;;;3.90
25514;BMP180;48128;54.242;10.280;2022-11-24T01:32:15;99984.00;;;3.90
25514;BMP180;48128;54.242;10.280;2022-11-24T01:34:42;99984.00;;;3.90
25514;BMP180;48128;54.242;10.280;2022-11-24T01:37:09;99988.00;;;4.00
25514;BMP180;48128;54.242;10.280;2022-11-24T01:39:36;99987.00;;;4.00
25514;BMP180;48128;54.242;10.280;2022-11-24T01:42:02;99993.00;;;4.00
25514;BMP180;48128;54.242;10.280;2022-11-24T01:44:30;99994.00;;;4.00
25514;BMP180;48128;54.242;10.280;2022-11-24T01:47:05;99989.00;;;4.00
25514;BMP180;48128;54.242;10.280;2022-11-24T01:49:42;99997.00;;;4.00
25514;BMP180;48128;54.242;10.280;2022-11-24T01:52:12;100001.00;;;4.00
25514;BMP180;48128;54.242;10.280;2022-11-24T01:54:44;99997.00;;;4.00
25514;BMP180;48128;54.242;10.280;2022-11-24T01:57:25;100003.00;;;4.00
25514;BMP180;48128;54.242;10.280;2022-11-24T01:59:55;99993.00;;;4.00
25514;BMP180;48128;54.242;10.280;2022-11-24T02:02:23;99991.00;;;4.00
25514;BMP180;48128;54.242;10.280;2022-11-24T02:04:51;100008.00;;;4.00
25514;BMP180;48128;54.242;10.280;2022-11-24T02:07:18;100006.00;;;4.00
25514;BMP180;48128;54.242;10.280;2022-11-24T02:09:53;100002.00;;;4.00
25514;BMP180;48128;54.242;10.280;2022-11-24T02:12:21;100007.00;;;4.00
25514;BMP180;48128;54.242;10.280;2022-11-24T02:14:49;100002.00;;;4.00
25514;BMP180;48128;54.242;10.280;2022-11-24T02:17:16;99994.00;;;4.00
25514;BMP180;48128;54.242;10.280;2022-11-24T02:27:55;100011.00;;;3.90
25514;BMP180;48128;54.242;10.280;2022-11-24T02:30:23;100011.00;;;3.90
25514;BMP180;48128;54.242;10.280;2022-11-24T02:32:50;100010.00;;;4.00
25514;BMP180;48128;54.242;10.280;2022-11-24T02:35:18;100022.00;;;4.00
25514;BMP180;48128;54.242;10.280;2022-11-24T02:37:45;100020.00;;;4.00
25514;BMP180;48128;54.242;10.280;2022-11-24T02:40:14;100012.00;;;4.00
25514;BMP180;48128;54.242;10.280;2022-11-24T02:42:43;100012.00;;;4.00
25514;BMP180;48128;54.242;10.280;2022-11-24T02:45:11;100012.00;;;4.00
25514;BMP180;48128;54.242;10.280;2022-11-24T02:47:40;100006.00;;;4.00
25514;BMP180;48128;54.242;10.280;2022-11-24T02:50:07;100016.00;;;4.00
25514;BMP180;48128;54.242;10.280;2022-11-24T02:52:34;100015.00;;;4.00
25514;BMP180;48128;54.242;10.280;2022-11-24T02:55:00;100021.00;;;4.00
25514;BMP180;48128;54.242;10.280;2022-11-24T02:57:27;100020.00;;;4.00
25514;BMP180;48128;54.242;10.280;2022-11-24T02:59:54;100024.00;;;4.00
25514;BMP180;48128;54.242;10.280;2022-11-24T03:02:21;100015.00;;;4.00
25514;BMP180;48128;54.242;10.280;2022-11-24T03:04:48;100018.00;;;4.00
25514;BMP180;48128;54.242;10.280;2022-11-24T03:07:15;100005.00;;;4.00
25514;BMP180;48128;54.242;10.280;2022-11-24T03:09:42;100022.00;;;4.00
25514;BMP180;48128;54.242;10.280;2022-11-24T03:12:09;100026.00;;;4.10
25514;BMP180;48128;54.242;10.280;2022-11-24T03:14:35;100008.00;;;4.00
25514;BMP180;48128;54.242;10.280;2022-11-24T03:17:02;100027.00;;;4.10
25514;BMP180;48128;54.242;10.280;2022-11-24T03:19:29;100018.00;;;4.10
25514;BMP180;48128;54.242;10.280;2022-11-24T03:21:56;100032.00;;;4.10
25514;BMP180;48128;54.242;10.280;2022-11-24T03:24:23;100033.00;;;4.10
25514;BMP180;48128;54.242;10.280;2022-11-24T03:26:50;100027.00;;;4.10
25514;BMP180;48128;54.242;10.280;2022-11-24T03:29:17;100025.00;;;4.10
25514;BMP180;48128;54.242;10.280;2022-11-24T03:31:43;100035.00;;;4.10
25514;BMP180;48128;54.242;10.280;2022-11-24T03:34:10;100035.00;;;4.10
25514;BMP180;48128;54.242;10.280;2022-11-24T03:36:37;100034.00;;;4.10
25514;BMP180;48128;54.242;10.280;2022-11-24T03:39:04;100036.00;;;4.10
25514;BMP180;48128;54.242;10.280;2022-11-24T03:41:31;100037.00;;;4.10
25514;BMP180;48128;54.242;10.280;2022-11-24T03:43:57;100035.00;;;4.10
25514;BMP180;48128;54.242;10.280;2022-11-24T03:46:24;100045.00;;;4.20
25514;BMP180;48128;54.242;10.280;2022-11-24T03:48:51;100051.00;;;4.20
25514;BMP180;48128;54.242;10.280;2022-11-24T03:51:18;100039.00;;;4.20
25514;BMP180;48128;54.242;10.280;2022-11-24T03:53:45;100043.00;;;4.20
25514;BMP180;48128;54.242;10.280;2022-11-24T03:56:12;100051.00;;;4.20
25514;BMP180;48128;54.242;10.280;2022-11-24T03:58:39;100048.00;;;4.20
25514;BMP180;48128;54.242;10.280;2022-11-24T04:01:06;100047.00;;;4.30
25514;BMP180;48128;54.242;10.280;2022-11-24T04:03:32;100051.00;;;4.30
25514;BMP180;48128;54.242;10.280;2022-11-24T04:05:59;100059.00;;;4.30
25514;BMP180;48128;54.242;10.280;2022-11-24T04:08:26;100054.00;;;4.30
25514;BMP180;48128;54.242;10.280;2022-11-24T04:10:53;100073.00;;;4.30
25514;BMP180;48128;54.242;10.280;2022-11-24T04:13:21;100060.00;;;4.30
25514;BMP180;48128;54.242;10.280;2022-11-24T04:15:48;100065.00;;;4.30
25514;BMP180;48128;54.242;10.280;2022-11-24T04:18:15;100073.00;;;4.30
25514;BMP180;48128;54.242;10.280;2022-11-24T04:20:43;100074.00;;;4.40
25514;BMP180;48128;54.242;10.280;2022-11-24T04:23:10;100066.00;;;4.40
25514;BMP180;48128;54.242;10.280;2022-11-24T04:25:37;100074.00;;;4.40
25514;BMP180;48128;54.242;10.280;2022-11-24T04:28:04;100074.00;;;4.40
25514;BMP180;48128;54.242;10.280;2022-11-24T04:30:31;100062.00;;;4.40
25514;BMP180;48128;54.242;10.280;2022-11-24T04:32:57;100074.00;;;4.40
25514;BMP180;48128;54.242;10.280;2022-11-24T04:35:24;100078.00;;;4.40
25514;BMP180;48128;54.242;10.280;2022-11-24T04:37:51;100087.00;;;4.50
25514;BMP180;48128;54.242;10.280;2022-11-24T04:40:18;100089.00;;;4.50
25514;BMP180;48128;54.242;10.280;2022-11-24T04:42:54;100099.00;;;4.50
25514;BMP180;48128;54.242;10.280;2022-11-24T04:45:22;100082.00;;;4.50
25514;BMP180;48128;54.242;10.280;2022-11-24T04:47:49;100098.00;;;4.50
25514;BMP180;48128;54.242;10.280;2022-11-24T04:50:16;100104.00;;;4.50
25514;BMP180;48128;54.242;10.280;2022-11-24T04:52:42;100109.00;;;4.50
25514;BMP180;48128;54.242;10.280;2022-11-24T04:55:09;100101.00;;;4.60
25514;BMP180;48128;54.242;10.280;2022-11-24T04:57:36;100108.00;;;4.60
25514;BMP180;48128;54.242;10.280;2022-11-24T05:00:04;100111.00;;;4.60
25514;BMP180;48128;54.242;10.280;2022-11-24T05:02:31;100112.00;;;4.60
25514;BMP180;48128;54.242;10.280;2022-11-24T05:04:58;100117.00;;;4.60
25514;BMP180;48128;54.242;10.280;2022-11-24T05:07:25;100121.00;;;4.60
25514;BMP180;48128;54.242;10.280;2022-11-24T05:09:52;100121.00;;;4.60
25514;BMP180;48128;54.242;10.280;2022-11-24T05:12:37;100142.00;;;4.60
25514;BMP180;48128;54.242;10.280;2022-11-24T05:15:05;100140.00;;;4.70
25514;BMP180;48128;54.242;10.280;2022-11-24T05:17:37;100138.00;;;4.70
25514;BMP180;48128;54.242;10.280;2022-11-24T05:20:05;100140.00;;;4.70
25514;BMP180;48128;54.242;10.280;2022-11-24T05:22:32;100136.00;;;4.70
25514;BMP180;48128;54.242;10.280;2022-11-24T05:24:59;100133.00;;;4.70
25514;BMP180;48128;54.242;10.280;2022-11-24T05:27:26;100133.00;;;4.70
25514;BMP180;48128;54.242;10.280;2022-11-24T15:39:24;100693.00;;;7.60
25514;BMP180;48128;54.242;10.280;2022-11-24T15:41:51;100703.00;;;7.60
25514;BMP180;48128;54.242;10.280;2022-11-24T15:44:18;100692.00;;;7.60
25514;BMP180;48128;54.242;10.280;2022-11-24T15:46:45;100696.00;;;7.60
25514;BMP180;48128;54.242;10.280;2022-11-24T15:49:12;100694.00;;;7.60
25514;BMP180;48128;54.242;10.280;2022-11-24T15:51:41;100696.00;;;7.60
25514;BMP180;48128;54.242;10.280;2022-11-24T15:54:12;100693.00;;;7.60
25514;BMP180;48128;54.242;10.280;2022-11-24T15:56:40;100700.00;;;7.60
25514;BMP180;48128;54.242;10.280;2022-11-24T15:59:13;100701.00;;;7.50
25514;BMP180;48128;54.242;10.280;2022-11-24T16:01:46;100692.00;;;7.50
25514;BMP180;48128;54.242;10.280;2022-11-24T16:04:15;100688.00;;;7.50
25514;BMP180;48128;54.242;10.280;2022-11-24T16:06:42;100692.00;;;7.50
25514;BMP180;48128;54.242;10.280;2022-11-24T16:09:12;100697.00;;;7.40
25514;BMP180;48128;54.242;10.280;2022-11-24T16:11:40;100694.00;;;7.40
25514;BMP180;48128;54.242;10.280;2022-11-24T16:14:07;100693.00;;;7.30
25514;BMP180;48128;54.242;10.280;2022-11-24T16:16:33;100701.00;;;7.20
25514;BMP180;48128;54.242;10.280;2022-11-24T16:19:00;100695.00;;;7.10
25514;BMP180;48128;54.242;10.280;2022-11-24T16:21:27;100694.00;;;7.00
25514;BMP180;48128;54.242;10.280;2022-11-24T16:23:54;100700.00;;;6.90
25514;BMP180;48128;54.242;10.280;2022-11-24T16:26:21;100686.00;;;6.80
25514;BMP180;48128;54.242;10.280;2022-11-24T16:28:48;100688.00;;;6.70
25514;BMP180;48128;54.242;10.280;2022-11-24T16:31:14;100690.00;;;6.50
25514;BMP180;48128;54.242;10.280;2022-11-24T16:33:43;100694.00;;;6.40
25514;BMP180;48128;54.242;10.280;2022-11-24T16:36:11;100695.00;;;6.30
25514;BMP180;48128;54.242;10.280;2022-11-24T16:38:39;100689.00;;;6.20
25514;BMP180;48128;54.242;10.280;2022-11-24T16:41:06;100691.00;;;6.20
25514;BMP180;48128;54.242;10.280;2022-11-24T16:43:36;100686.00;;;6.00
25514;BMP180;48128;54.242;10.280;2022-11-24T16:46:21;100698.00;;;5.90
25514;BMP180;48128;54.242;10.280;2022-11-24T16:48:50;100706.00;;;5.80
25514;BMP180;48128;54.242;10.280;2022-11-24T16:51:19;100719.00;;;5.80
25514;BMP180;48128;54.242;10.280;2022-11-24T16:53:46;100710.00;;;5.80
25514;BMP180;48128;54.242;10.280;2022-11-24T16:56:13;100710.00;;;5.80
25514;BMP180;48128;54.242;10.280;2022-11-24T16:58:41;100722.00;;;5.70
25514;BMP180;48128;54.242;10.280;2022-11-24T17:01:10;100716.00;;;5.70
25514;BMP180;48128;54.242;10.280;2022-11-24T17:03:37;100716.00;;;5.70
25514;BMP180;48128;54.242;10.280;2022-11-24T17:06:06;100723.00;;;5.70
25514;BMP180;48128;54.242;10.280;2022-11-24T17:08:34;100732.00;;;5.70
25514;BMP180;48128;54.242;10.280;2022-11-24T17:11:17;100729.00;;;5.70
25514;BMP180;48128;54.242;10.280;2022-11-24T17:13:44;100738.00;;;5.70
25514;BMP180;48128;54.242;10.280;2022-11-24T17:16:17;100726.00;;;5.70
25514;BMP180;48128;54.242;10.280;2022-11-24T17:18:45;100732.00;;;5.70
25514;BMP180;48128;54.242;10.280;2022-11-24T17:21:18;100731.00;;;5.70
25514;BMP180;48128;54.242;10.280;2022-11-24T17:23:45;100729.00;;;5.80
25514;BMP180;48128;54.242;10.280;2022-11-24T17:26:14;100735.00;;;5.80
25514;BMP180;48128;54.242;10.280;2022-11-24T17:28:41;100743.00;;;5.80
25514;BMP180;48128;54.242;10.280;2022-11-24T17:31:22;100734.00;;;5.80
25514;BMP180;48128;54.242;10.280;2022-11-24T17:33:49;100735.00;;;5.80
25514;BMP180;48128;54.242;10.280;2022-11-24T17:36:16;100729.00;;;5.80
25514;BMP180;48128;54.242;10.280;2022-11-24T17:38:43;100744.00;;;5.80
25514;BMP180;48128;54.242;10.280;2022-11-24T17:41:11;100746.00;;;5.80
25514;BMP180;48128;54.242;10.280;2022-11-24T17:43:38;100773.00;;;5.70
25514;BMP180;48128;54.242;10.280;2022-11-24T17:46:05;100757.00;;;5.70
25514;BMP180;48128;54.242;10.280;2022-11-24T17:48:32;100761.00;;;5.60
25514;BMP180;48128;54.242;10.280;2022-11-24T17:51:07;100775.00;;;5.50
25514;BMP180;48128;54.242;10.280;2022-11-24T17:53:35;100772.00;;;5.40
25514;BMP180;48128;54.242;10.280;2022-11-24T17:56:03;100768.00;;;5.40
25514;BMP180;48128;54.242;10.280;2022-11-24T17:58:31;100784.00;;;5.40
25514;BMP180;48128;54.242;10.280;2022-11-24T18:00:58;100778.00;;;5.30
25514;BMP180;48128;54.242;10.280;2022-11-24T18:03:26;100777.00;;;5.30
25514;BMP180;48128;54.242;10.280;2022-11-24T18:06:03;100778.00;;;5.30
25514;BMP180;48128;54.242;10.280;2022-11-24T18:08:37;100776.00;;;5.20
25514;BMP180;48128;54.242;10.280;2022-11-24T18:11:25;100790.00;;;5.10
25514;BMP180;48128;54.242;10.280;2022-11-24T18:13:59;100787.00;;;5.00
25514;BMP180;48128;54.242;10.280;2022-11-24T18:16:28;100795.00;;;5.00
25514;BMP180;48128;54.242;10.280;2022-11-24T18:18:58;100806.00;;;4.90
25514;BMP180;48128;54.242;10.280;2022-11-24T18:21:40;100810.00;;;4.90
25514;BMP180;48128;54.242;10.280;2022-11-24T18:24:10;100818.00;;;4.90
25514;BMP180;48128;54.242;10.280;2022-11-24T18:26:38;100818.00;;;4.90
25514;BMP180;48128;54.242;10.280;2022-11-24T18:29:05;100816.00;;;4.90
25514;BMP180;48128;54.242;10.280;2022-11-24T18:31:32;100818.00;;;4.90
25514;BMP180;48128;54.242;10.280;2022-11-24T18:34:02;100820.00;;;5.00
25514;BMP180;48128;54.242;10.280;2022-11-24T18:36:29;100820.00;;;5.00
25514;BMP180;48128;54.242;10.280;2022-11-24T18:38:59;100803.00;;;5.10
25514;BMP180;48128;54.242;10.280;2022-11-24T18:41:26;100804.00;;;5.10
25514;BMP180;48128;54.242;10.280;2022-11-24T18:43:53;100801.00;;;5.10
25514;BMP180;48128;54.242;10.280;2022-11-24T18:46:19;100804.00;;;5.10
25514;BMP180;48128;54.242;10.280;2022-11-24T18:48:46;100810.00;;;5.10
25514;BMP180;48128;54.242;10.280;2022-11-24T18:51:13;100800.00;;;5.20
25514;BMP180;48128;54.242;10.280;2022-11-24T18:53:41;100801.00;;;5.20
25514;BMP180;48128;54.242;10.280;2022-11-24T20:08:48;100855.00;;;4.40
25514;BMP180;48128;54.242;10.280;2022-11-24T20:11:17;100865.00;;;4.30
25514;BMP180;48128;54.242;10.280;2022-11-24T20:13:44;100850.00;;;4.30
25514;BMP180;48128;54.242;10.280;2022-11-24T20:16:16;100863.00;;;4.20
25514;BMP180;48128;54.242;10.280;2022-11-24T20:18:45;100854.00;;;4.10
25514;BMP180;48128;54.242;10.280;2022-11-24T20:21:17;100856.00;;;4.00
25514;BMP180;48128;54.242;10.280;2022-11-24T20:23:50;100860.00;;;4.00
25514;BMP180;48128;54.242;10.280;2022-11-24T20:26:18;100853.00;;;3.90
25514;BMP180;48128;54.242;10.280;2022-11-24T20:28:46;100856.00;;;3.80
25514;BMP180;48128;54.242;10.280;2022-11-24T20:31:15;100867.00;;;3.70
25514;BMP180;48128;54.242;10.280;2022-11-24T20:33:43;100859.00;;;3.70
25514;BMP180;48128;54.242;10.280;2022-11-24T20:36:16;100878.00;;;3.60
25514;BMP180;48128;54.242;10.280;2022-11-24T20:38:43;100870.00;;;3.60
25514;BMP180;48128;54.242;10.280;2022-11-24T20:41:16;100861.00;;;3.50
25514;BMP180;48128;54.242;10.280;2022-11-24T20:43:43;100859.00;;;3.50
25514;BMP180;48128;54.242;10.280;2022-11-24T20:46:13;100871.00;;;3.40
25514;BMP180;48128;54.242;10.280;2022-11-24T20:48:40;100876.00;;;3.30
25514;BMP180;48128;54.242;10.280;2022-11-24T20:51:11;100875.00;;;3.30
25514;BMP180;48128;54.242;10.280;2022-11-24T20:53:39;100866.00;;;3.20
25514;BMP180;48128;54.242;10.280;2022-11-24T20:56:26;100879.00;;;3.10
25514;BMP180;48128;54.242;10.280;2022-11-24T20:58:54;100876.00;;;3.10
25514;BMP180;48128;54.242;10.280;2022-11-24T21:01:27;100884.00;;;3.00
25514;BMP180;48128;54.242;10.280;2022-11-24T21:03:56;100889.00;;;3.00
25514;BMP180;48128;54.242;10.280;2022-11-24T21:06:24;100884.00;;;2.90
25514;BMP180;48128;54.242;10.280;2022-11-24T21:08:51;100881.00;;;2.90
25514;BMP180;48128;54.242;10.280;2022-11-24T21:11:18;100888.00;;;2.80
25514;BMP180;48128;54.242;10.280;2022-11-24T21:13:45;100888.00;;;2.80
25514;BMP180;48128;54.242;10.280;2022-11-24T21:16:20;100900.00;;;2.70
25514;BMP180;48128;54.242;10.280;2022-11-24T21:18:49;100891.00;;;2.70
25514;BMP180;48128;54.242;10.280;2022-11-24T21:21:18;100900.00;;;2.70
25514;BMP180;48128;54.242;10.280;2022-11-24T21:23:45;100898.00;;;2.60
25514;BMP180;48128;54.242;10.280;2022-11-24T21:26:12;100903.00;;;2.60
25514;BMP180;48128;54.242;10.280;2022-11-24T21:28:43;100896.00;;;2.60
25514;BMP180;48128;54.242;10.280;2022-11-24T21:31:14;100903.00;;;2.50
25514;BMP180;48128;54.242;10.280;2022-11-24T21:33:50;100895.00;;;2.50
25514;BMP180;48128;54.242;10.280;2022-11-24T21:36:20;100896.00;;;2.40
25514;BMP180;48128;54.242;10.280;2022-11-24T21:38:52;100888.00;;;2.30
25514;BMP180;48128;54.242;10.280;2022-11-24T21:41:19;100895.00;;;2.30
25514;BMP180;48128;54.242;10.280;2022-11-24T21:43:47;100882.00;;;2.30
25514;BMP180;48128;54.242;10.280;2022-11-24T21:46:14;100893.00;;;2.20
25514;BMP180;48128;54.242;10.280;2022-11-24T21:48:41;100893.00;;;2.20
25514;BMP180;48128;54.242;10.280;2022-11-24T21:51:13;100893.00;;;2.20
25514;BMP180;48128;54.242;10.280;2022-11-24T21:53:41;100900.00;;;2.20
25514;BMP180;48128;54.242;10.280;2022-11-24T21:56:13;100886.00;;;2.20
25514;BMP180;48128;54.242;10.280;2022-11-24T21:58:49;100887.00;;;2.10
25514;BMP180;48128;54.242;10.280;2022-11-24T22:01:17;100886.00;;;2.10
25514;BMP180;48128;54.242;10.280;2022-11-24T22:03:45;100894.00;;;2.10
25514;BMP180;48128;54.242;10.280;2022-11-24T22:06:12;100900.00;;;2.10
25514;BMP180;48128;54.242;10.280;2022-11-24T22:08:39;100895.00;;;2.20
25514;BMP180;48128;54.242;10.280;2022-11-24T22:11:11;100883.00;;;2.20
25514;BMP180;48128;54.242;10.280;2022-11-24T22:13:38;100884.00;;;2.20
25514;BMP180;48128;54.242;10.280;2022-11-24T22:16:10;100894.00;;;2.20
25514;BMP180;48128;54.242;10.280;2022-11-24T22:18:39;100901.00;;;2.20
25514;BMP180;48128;54.242;10.280;2022-11-24T22:21:08;100910.00;;;2.20
25514;BMP180;48128;54.242;10.280;2022-11-24T22:23:35;100905.00;;;2.30
25514;BMP180;48128;54.242;10.280;2022-11-24T22:26:09;100911.00;;;2.30
25514;BMP180;48128;54.242;10.280;2022-11-24T22:28:37;100901.00;;;2.40
25514;BMP180;48128;54.242;10.280;2022-11-24T22:33:32;100915.00;;;2.50
25514;BMP180;48128;54.242;10.280;2022-11-24T22:36:00;100912.00;;;2.50
25514;BMP180;48128;54.242;10.280;2022-11-24T22:38:27;100906.00;;;2.60
25514;BMP180;48128;54.242;10.280;2022-11-24T22:40:59;100902.00;;;2.70
25514;BMP180;48128;54.242;10.280;2022-11-24T22:43:28;100920.00;;;2.70
25514;BMP180;48128;54.242;10.280;2022-11-24T22:45:55;100915.00;;;2.70
25514;BMP180;48128;54.242;10.280;2022-11-24T22:48:22;100914.00;;;2.80
25514;BMP180;48128;54.242;10.280;2022-11-24T22:50:48;100932.00;;;2.90
25514;BMP180;48128;54.242;10.280;2022-11-24T22:53:15;100927.00;;;2.90
25514;BMP180;48128;54.242;10.280;2022-11-24T22:55:42;100935.00;;;3.00
25514;BMP180;48128;54.242;10.280;2022-11-24T22:58:09;100935.00;;;3.00
25514;BMP180;48128;54.242;10.280;2022-11-24T23:00:35;100926.00;;;3.10
25514;BMP180;48128;54.242;10.280;2022-11-24T23:03:02;100921.00;;;3.10
25514;BMP180;48128;54.242;10.280;2022-11-24T23:05:31;100927.00;;;3.20
25514;BMP180;48128;54.242;10.280;2022-11-24T23:07:58;100936.00;;;3.10
25514;BMP180;48128;54.242;10.280;2022-11-24T23:10:25;100928.00;;;3.10
25514;BMP180;48128;54.242;10.280;2022-11-24T23:12:51;100925.00;;;3.10
25514;BMP180;48128;54.242;10.280;2022-11-24T23:15:20;100928.00;;;3.10
25514;BMP180;48128;54.242;10.280;2022-11-24T23:17:46;100921.00;;;3.20
25514;BMP180;48128;54.242;10.280;2022-11-24T23:20:13;100932.00;;;3.20
25514;BMP180;48128;54.242;10.280;2022-11-24T23:22:40;100915.00;;;3.20
25514;BMP180;48128;54.242;10.280;2022-11-24T23:25:07;100922.00;;;3.20
25514;BMP180;48128;54.242;10.280;2022-11-24T23:27:34;100928.00;;;3.30
25514;BMP180;48128;54.242;10.280;2022-11-24T23:30:02;100927.00;;;3.30
25514;BMP180;48128;54.242;10.280;2022-11-24T23:32:29;100920.00;;;3.30
25514;BMP180;48128;54.242;10.280;2022-11-24T23:34:55;100917.00;;;3.30
25514;BMP180;48128;54.242;10.280;2022-11-24T23:37:22;100922.00;;;3.30
25514;BMP180;48128;54.242;10.280;2022-11-24T23:40:09;100927.00;;;3.40
25514;BMP180;48128;54.242;10.280;2022-11-24T23:42:36;100923.00;;;3.40
25514;BMP180;48128;54.242;10.280;2022-11-24T23:45:03;100919.00;;;3.40
25514;BMP180;48128;54.242;10.280;2022-11-24T23:47:31;100905.00;;;3.40
25514;BMP180;48128;54.242;10.280;2022-11-24T23:49:58;100911.00;;;3.40
25514;BMP180;48128;54.242;10.280;2022-11-24T23:52:24;100911.00;;;3.40
25514;BMP180;48128;54.242;10.280;2022-11-24T23:54:51;100907.00;;;3.40
25514;BMP180;48128;54.242;10.280;2022-11-24T23:57:18;100901.00;;;3.40
25514;BMP180;48128;54.242;10.280;2022-11-24T23:59:45;100890.00;;;3.40
